^^
Station Historical Data
Daily Summary for March 9, 2018 Units:  Both    English   Metric
« Previous Day
Next Day »
Daily Weekly Monthly Yearly Custom
  High: Low: Average:
Temperature: TemperatureF °F /  -17.8 °C 62.6 °F /  17 °C 73.2 °F /  22.9 °C
Dew Point: DewpointF °F /  -17.8 °C 35.2 °F /  1.8 °C 45.2 °F /  7.3 °C
Humidity: Humidity% 29% 37%
Wind Speed: WindSpeedMPHmph /  0km/h - -3.3mph /  -5.3km/h
Wind Gust: WindSpeedGustMPHmph /  0km/h - -
Wind- - NE
Pressure: PressureIn in /  0 hPa 29.61 in /  1002.6 hPa -
Precipitation: 0.00 in /  0 mm    
Historical Graphs
 
 
Tabular Data for March 9, 2018
Time Temperature Dew Point Pressure Wind Wind Speed Wind Gust Humidity Rainfall Rate (Hourly) solar Conditions
TemperatureF °F /  -17.8 °C DewpointF °F /  -17.8 °C PressureInin /  0hPa Calm     Humidity% HourlyPrecipInin /  0mm SoftwareType W/m2 Conditions
08:13 62.8 °F /  17.1 °C 35.4 °F /  1.9 °C 29.74in /  1007hPa North -999.9mph /  -1609.1km/h -999.0mph /  -1607.7km/h 36% 0.00in /  0mm meteobridge W/m2
08:19 62.8 °F /  17.1 °C 36.1 °F /  2.3 °C 29.74in /  1007hPa North 12.1mph /  19.5km/h 13.0mph /  20.9km/h 37% 0.00in /  0mm meteobridge W/m2
08:25 62.6 °F /  17 °C 35.2 °F /  1.8 °C 29.74in /  1007hPa ENE 6.9mph /  11.1km/h 15.0mph /  24.1km/h 36% 0.00in /  0mm meteobridge W/m2
08:31 63.0 °F /  17.2 °C 37.6 °F /  3.1 °C 29.75in /  1007.3hPa NNE 10.1mph /  16.3km/h 13.0mph /  20.9km/h 39% 0.00in /  0mm meteobridge W/m2
08:37 63.0 °F /  17.2 °C 40.6 °F /  4.8 °C 29.75in /  1007.3hPa NNE 13.0mph /  20.9km/h 14.0mph /  22.5km/h 44% 0.00in /  0mm meteobridge W/m2
08:43 62.8 °F /  17.1 °C 42.8 °F /  6 °C 29.75in /  1007.3hPa NE 14.1mph /  22.7km/h 20.0mph /  32.2km/h 48% 0.00in /  0mm meteobridge W/m2
08:50 63.0 °F /  17.2 °C 40.6 °F /  4.8 °C 29.75in /  1007.3hPa NNE 8.9mph /  14.3km/h 13.0mph /  20.9km/h 44% 0.00in /  0mm meteobridge W/m2
08:56 63.1 °F /  17.3 °C 43.2 °F /  6.2 °C 29.75in /  1007.3hPa North 8.9mph /  14.3km/h 18.0mph /  29km/h 48% 0.00in /  0mm meteobridge W/m2
09:02 63.7 °F /  17.6 °C 45.1 °F /  7.3 °C 29.75in /  1007.3hPa North 8.9mph /  14.3km/h 14.0mph /  22.5km/h 51% 0.00in /  0mm meteobridge W/m2
09:08 63.9 °F /  17.7 °C 45.9 °F /  7.7 °C 29.75in /  1007.3hPa NE 6.0mph /  9.7km/h 12.0mph /  19.3km/h 52% 0.00in /  0mm meteobridge W/m2
09:14 64.4 °F /  18 °C 45.3 °F /  7.4 °C 29.75in /  1007.3hPa North 8.9mph /  14.3km/h 12.0mph /  19.3km/h 50% 0.00in /  0mm meteobridge W/m2
09:20 64.8 °F /  18.2 °C 45.7 °F /  7.6 °C 29.75in /  1007.3hPa North 10.1mph /  16.3km/h 12.0mph /  19.3km/h 50% 0.00in /  0mm meteobridge W/m2
09:26 64.6 °F /  18.1 °C 45.5 °F /  7.5 °C 29.75in /  1007.3hPa North 8.9mph /  14.3km/h 14.0mph /  22.5km/h 50% 0.00in /  0mm meteobridge W/m2
09:32 64.9 °F /  18.3 °C 46.4 °F /  8 °C 29.76in /  1007.7hPa NNW 6.0mph /  9.7km/h 13.0mph /  20.9km/h 51% 0.00in /  0mm meteobridge W/m2
09:39 65.5 °F /  18.6 °C 47.5 °F /  8.6 °C 29.76in /  1007.7hPa NNE 6.9mph /  11.1km/h 10.0mph /  16.1km/h 52% 0.00in /  0mm meteobridge W/m2
09:45 65.8 °F /  18.8 °C 47.1 °F /  8.4 °C 29.76in /  1007.7hPa North 11.0mph /  17.7km/h 13.0mph /  20.9km/h 51% 0.00in /  0mm meteobridge W/m2
09:51 65.8 °F /  18.8 °C 47.1 °F /  8.4 °C 29.76in /  1007.7hPa North 4.0mph /  6.4km/h 13.0mph /  20.9km/h 51% 0.00in /  0mm meteobridge W/m2
09:57 66.2 °F /  19 °C 47.5 °F /  8.6 °C 29.76in /  1007.7hPa North 6.0mph /  9.7km/h 11.0mph /  17.7km/h 51% 0.00in /  0mm meteobridge W/m2
10:03 67.1 °F /  19.5 °C 46.8 °F /  8.2 °C 29.76in /  1007.7hPa NNE 6.0mph /  9.7km/h 9.0mph /  14.5km/h 48% 0.00in /  0mm meteobridge W/m2
10:09 67.3 °F /  19.6 °C 48.0 °F /  8.9 °C 29.76in /  1007.7hPa NNE 6.9mph /  11.1km/h 10.0mph /  16.1km/h 50% 0.00in /  0mm meteobridge W/m2
10:15 68.0 °F /  20 °C 48.2 °F /  9 °C 29.76in /  1007.7hPa NNE 4.0mph /  6.4km/h 9.0mph /  14.5km/h 49% 0.00in /  0mm meteobridge W/m2
10:21 68.7 °F /  20.4 °C 49.3 °F /  9.6 °C 29.75in /  1007.3hPa North 6.0mph /  9.7km/h 10.0mph /  16.1km/h 50% 0.00in /  0mm meteobridge W/m2
10:27 69.4 °F /  20.8 °C 49.5 °F /  9.7 °C 29.75in /  1007.3hPa NNE 2.9mph /  4.7km/h 9.0mph /  14.5km/h 49% 0.00in /  0mm meteobridge W/m2
10:34 69.8 °F /  21 °C 49.3 °F /  9.6 °C 29.75in /  1007.3hPa NNE 2.0mph /  3.2km/h 9.0mph /  14.5km/h 48% 0.00in /  0mm meteobridge W/m2
10:40 70.3 °F /  21.3 °C 49.1 °F /  9.5 °C 29.74in /  1007hPa North 2.9mph /  4.7km/h 5.0mph /  8km/h 47% 0.00in /  0mm meteobridge W/m2
10:46 70.9 °F /  21.6 °C 49.6 °F /  9.8 °C 29.74in /  1007hPa North 2.9mph /  4.7km/h 9.0mph /  14.5km/h 47% 0.00in /  0mm meteobridge W/m2
10:52 70.9 °F /  21.6 °C 49.6 °F /  9.8 °C 29.74in /  1007hPa North 6.0mph /  9.7km/h 9.0mph /  14.5km/h 47% 0.00in /  0mm meteobridge W/m2
10:58 71.4 °F /  21.9 °C 48.4 °F /  9.1 °C 29.74in /  1007hPa Calm   3.0mph /  4.8km/h 44% 0.00in /  0mm meteobridge W/m2
11:04 72.1 °F /  22.3 °C 49.1 °F /  9.5 °C 29.74in /  1007hPa North 2.9mph /  4.7km/h 5.0mph /  8km/h 44% 0.00in /  0mm meteobridge W/m2
11:10 72.0 °F /  22.2 °C 46.9 °F /  8.3 °C 29.74in /  1007hPa North 0.9mph /  1.4km/h 5.0mph /  8km/h 41% 0.00in /  0mm meteobridge W/m2
11:17 72.7 °F /  22.6 °C 47.7 °F /  8.7 °C 29.74in /  1007hPa ENE 4.9mph /  7.9km/h 7.0mph /  11.3km/h 41% 0.00in /  0mm meteobridge W/m2
11:23 73.4 °F /  23 °C 47.7 °F /  8.7 °C 29.73in /  1006.7hPa Calm   3.0mph /  4.8km/h 40% 0.00in /  0mm meteobridge W/m2
11:29 74.1 °F /  23.4 °C 47.7 °F /  8.7 °C 29.73in /  1006.7hPa ENE 0.9mph /  1.4km/h 3.0mph /  4.8km/h 39% 0.00in /  0mm meteobridge W/m2
11:35 75.6 °F /  24.2 °C 50.9 °F /  10.5 °C 29.73in /  1006.7hPa ENE 0.9mph /  1.4km/h 2.0mph /  3.2km/h 42% 0.00in /  0mm meteobridge W/m2
11:41 75.6 °F /  24.2 °C 46.8 °F /  8.2 °C 29.73in /  1006.7hPa South 4.9mph /  7.9km/h 7.0mph /  11.3km/h 36% 0.00in /  0mm meteobridge W/m2
11:47 75.0 °F /  23.9 °C 48.4 °F /  9.1 °C 29.73in /  1006.7hPa SSE 4.0mph /  6.4km/h 4.0mph /  6.4km/h 39% 0.00in /  0mm meteobridge W/m2
11:53 75.9 °F /  24.4 °C 47.8 °F /  8.8 °C 29.73in /  1006.7hPa ESE 2.9mph /  4.7km/h 5.0mph /  8km/h 37% 0.00in /  0mm meteobridge W/m2
11:59 75.7 °F /  24.3 °C 47.7 °F /  8.7 °C 29.72in /  1006.3hPa South 2.9mph /  4.7km/h 6.0mph /  9.7km/h 37% 0.00in /  0mm meteobridge W/m2
12:05 75.6 °F /  24.2 °C 44.4 °F /  6.9 °C 29.73in /  1006.7hPa South 10.1mph /  16.3km/h 14.0mph /  22.5km/h 33% 0.00in /  0mm meteobridge W/m2
12:11 74.8 °F /  23.8 °C 45.3 °F /  7.4 °C 29.72in /  1006.3hPa SSE 2.9mph /  4.7km/h 6.0mph /  9.7km/h 35% 0.00in /  0mm meteobridge W/m2
12:18 76.3 °F /  24.6 °C 45.9 °F /  7.7 °C 29.72in /  1006.3hPa SSE 0.9mph /  1.4km/h 4.0mph /  6.4km/h 34% 0.00in /  0mm meteobridge W/m2
12:24 77.4 °F /  25.2 °C 46.8 °F /  8.2 °C 29.72in /  1006.3hPa ESE 6.9mph /  11.1km/h 7.0mph /  11.3km/h 34% 0.00in /  0mm meteobridge W/m2
12:30 75.9 °F /  24.4 °C 46.2 °F /  7.9 °C 29.72in /  1006.3hPa WSW 2.9mph /  4.7km/h 12.0mph /  19.3km/h 35% 0.00in /  0mm meteobridge W/m2
12:36 75.4 °F /  24.1 °C 47.3 °F /  8.5 °C 29.72in /  1006.3hPa South 4.0mph /  6.4km/h 5.0mph /  8km/h 37% 0.00in /  0mm meteobridge W/m2
12:42 75.4 °F /  24.1 °C 48.0 °F /  8.9 °C 29.72in /  1006.3hPa South 6.0mph /  9.7km/h 14.0mph /  22.5km/h 38% 0.00in /  0mm meteobridge W/m2
12:48 75.6 °F /  24.2 °C 46.8 °F /  8.2 °C 29.71in /  1006hPa SE 4.0mph /  6.4km/h 11.0mph /  17.7km/h 36% 0.00in /  0mm meteobridge W/m2
12:54 76.3 °F /  24.6 °C 47.3 °F /  8.5 °C 29.71in /  1006hPa South 4.0mph /  6.4km/h 7.0mph /  11.3km/h 36% 0.00in /  0mm meteobridge W/m2
13:00 76.6 °F /  24.8 °C 48.4 °F /  9.1 °C 29.70in /  1005.6hPa South 6.0mph /  9.7km/h 12.0mph /  19.3km/h 37% 0.00in /  0mm meteobridge W/m2
13:06 76.8 °F /  24.9 °C 47.8 °F /  8.8 °C 29.70in /  1005.6hPa SSW 2.0mph /  3.2km/h 6.0mph /  9.7km/h 36% 0.00in /  0mm meteobridge W/m2
13:12 75.4 °F /  24.1 °C 45.1 °F /  7.3 °C 29.70in /  1005.6hPa NW 2.0mph /  3.2km/h 16.0mph /  25.7km/h 34% 0.00in /  0mm meteobridge W/m2
13:18 75.6 °F /  24.2 °C 47.5 °F /  8.6 °C 29.70in /  1005.6hPa SE 6.9mph /  11.1km/h 13.0mph /  20.9km/h 37% 0.00in /  0mm meteobridge W/m2
13:25 75.0 °F /  23.9 °C 45.5 °F /  7.5 °C 29.70in /  1005.6hPa SSE 6.0mph /  9.7km/h 13.0mph /  20.9km/h 35% 0.00in /  0mm meteobridge W/m2
13:31 75.7 °F /  24.3 °C 46.2 °F /  7.9 °C 29.69in /  1005.3hPa South 8.1mph /  13km/h 10.0mph /  16.1km/h 35% 0.00in /  0mm meteobridge W/m2
13:37 76.6 °F /  24.8 °C 46.9 °F /  8.3 °C 29.69in /  1005.3hPa SSE 2.9mph /  4.7km/h 12.0mph /  19.3km/h 35% 0.00in /  0mm meteobridge W/m2
13:43 77.5 °F /  25.3 °C 45.3 °F /  7.4 °C 29.68in /  1005hPa SW 2.0mph /  3.2km/h 10.0mph /  16.1km/h 32% 0.00in /  0mm meteobridge W/m2
13:49 77.2 °F /  25.1 °C 45.0 °F /  7.2 °C 29.68in /  1005hPa South 4.0mph /  6.4km/h 12.0mph /  19.3km/h 32% 0.00in /  0mm meteobridge W/m2
13:55 77.5 °F /  25.3 °C 46.2 °F /  7.9 °C 29.67in /  1004.6hPa South 4.0mph /  6.4km/h 6.0mph /  9.7km/h 33% 0.00in /  0mm meteobridge W/m2
14:01 77.9 °F /  25.5 °C 45.7 °F /  7.6 °C 29.67in /  1004.6hPa SSW 10.1mph /  16.3km/h 12.0mph /  19.3km/h 32% 0.00in /  0mm meteobridge W/m2
14:07 78.3 °F /  25.7 °C 46.8 °F /  8.2 °C 29.67in /  1004.6hPa SSE 6.0mph /  9.7km/h 9.0mph /  14.5km/h 33% 0.00in /  0mm meteobridge W/m2
14:14 79.3 °F /  26.3 °C 46.9 °F /  8.3 °C 29.67in /  1004.6hPa SSE 4.0mph /  6.4km/h 5.0mph /  8km/h 32% 0.00in /  0mm meteobridge W/m2
14:20 79.5 °F /  26.4 °C 47.1 °F /  8.4 °C 29.67in /  1004.6hPa South 4.0mph /  6.4km/h 12.0mph /  19.3km/h 32% 0.00in /  0mm meteobridge W/m2
14:26 78.3 °F /  25.7 °C 46.0 °F /  7.8 °C 29.66in /  1004.3hPa SE 4.9mph /  7.9km/h 14.0mph /  22.5km/h 32% 0.00in /  0mm meteobridge W/m2
14:32 78.4 °F /  25.8 °C 46.9 °F /  8.3 °C 29.67in /  1004.6hPa SSW 11.0mph /  17.7km/h 16.0mph /  25.7km/h 33% 0.00in /  0mm meteobridge W/m2
14:38 78.1 °F /  25.6 °C 44.1 °F /  6.7 °C 29.66in /  1004.3hPa SSW 4.9mph /  7.9km/h 10.0mph /  16.1km/h 30% 0.00in /  0mm meteobridge W/m2
14:44 78.8 °F /  26 °C 45.7 °F /  7.6 °C 29.65in /  1003.9hPa South 6.0mph /  9.7km/h 13.0mph /  20.9km/h 31% 0.00in /  0mm meteobridge W/m2
14:50 78.8 °F /  26 °C 44.8 °F /  7.1 °C 29.65in /  1003.9hPa South 0.9mph /  1.4km/h 6.0mph /  9.7km/h 30% 0.00in /  0mm meteobridge W/m2
14:56 78.8 °F /  26 °C 43.9 °F /  6.6 °C 29.65in /  1003.9hPa South 11.0mph /  17.7km/h 11.0mph /  17.7km/h 29% 0.00in /  0mm meteobridge W/m2
15:03 79.2 °F /  26.2 °C 46.8 °F /  8.2 °C 29.65in /  1003.9hPa SSE 4.9mph /  7.9km/h 9.0mph /  14.5km/h 32% 0.00in /  0mm meteobridge W/m2
15:09 78.6 °F /  25.9 °C 45.5 °F /  7.5 °C 29.65in /  1003.9hPa South 4.9mph /  7.9km/h 8.0mph /  12.9km/h 31% 0.00in /  0mm meteobridge W/m2
15:15 79.0 °F /  26.1 °C 45.7 °F /  7.6 °C 29.64in /  1003.6hPa SSE 6.9mph /  11.1km/h 10.0mph /  16.1km/h 31% 0.00in /  0mm meteobridge W/m2
15:21 79.3 °F /  26.3 °C 45.1 °F /  7.3 °C 29.64in /  1003.6hPa SSE 6.0mph /  9.7km/h 13.0mph /  20.9km/h 30% 0.00in /  0mm meteobridge W/m2
15:27 79.9 °F /  26.6 °C 45.7 °F /  7.6 °C 29.63in /  1003.3hPa South 6.9mph /  11.1km/h 15.0mph /  24.1km/h 30% 0.00in /  0mm meteobridge W/m2
15:34 79.2 °F /  26.2 °C 45.9 °F /  7.7 °C 29.64in /  1003.6hPa South 10.1mph /  16.3km/h 16.0mph /  25.7km/h 31% 0.00in /  0mm meteobridge W/m2
15:40 79.0 °F /  26.1 °C 45.0 °F /  7.2 °C 29.63in /  1003.3hPa SSE 4.9mph /  7.9km/h 9.0mph /  14.5km/h 30% 0.00in /  0mm meteobridge W/m2
15:46 78.8 °F /  26 °C 44.8 °F /  7.1 °C 29.62in /  1002.9hPa SSW 8.9mph /  14.3km/h 12.0mph /  19.3km/h 30% 0.00in /  0mm meteobridge W/m2
15:52 79.2 °F /  26.2 °C 47.7 °F /  8.7 °C 29.62in /  1002.9hPa SSE 6.9mph /  11.1km/h 10.0mph /  16.1km/h 33% 0.00in /  0mm meteobridge W/m2
15:58 79.5 °F /  26.4 °C 47.8 °F /  8.8 °C 29.63in /  1003.3hPa South 15.0mph /  24.1km/h 17.0mph /  27.4km/h 33% 0.00in /  0mm meteobridge W/m2
16:04 78.4 °F /  25.8 °C 46.9 °F /  8.3 °C 29.62in /  1002.9hPa SSE 6.9mph /  11.1km/h 9.0mph /  14.5km/h 33% 0.00in /  0mm meteobridge W/m2
16:10 79.2 °F /  26.2 °C 45.1 °F /  7.3 °C 29.62in /  1002.9hPa South 10.1mph /  16.3km/h 11.0mph /  17.7km/h 30% 0.00in /  0mm meteobridge W/m2
16:16 79.5 °F /  26.4 °C 46.2 °F /  7.9 °C 29.62in /  1002.9hPa SSW 4.9mph /  7.9km/h 13.0mph /  20.9km/h 31% 0.00in /  0mm meteobridge W/m2
16:22 78.8 °F /  26 °C 44.8 °F /  7.1 °C 29.62in /  1002.9hPa SSW 8.9mph /  14.3km/h 14.0mph /  22.5km/h 30% 0.00in /  0mm meteobridge W/m2
16:28 78.3 °F /  25.7 °C 45.1 °F /  7.3 °C 29.62in /  1002.9hPa SSE 8.1mph /  13km/h 14.0mph /  22.5km/h 31% 0.00in /  0mm meteobridge W/m2
16:34 78.4 °F /  25.8 °C 44.4 °F /  6.9 °C 29.62in /  1002.9hPa South 4.0mph /  6.4km/h 11.0mph /  17.7km/h 30% 0.00in /  0mm meteobridge W/m2
16:40 78.1 °F /  25.6 °C 44.1 °F /  6.7 °C 29.62in /  1002.9hPa SSE 6.0mph /  9.7km/h 12.0mph /  19.3km/h 30% 0.00in /  0mm meteobridge W/m2
16:46 77.7 °F /  25.4 °C 43.9 °F /  6.6 °C 29.62in /  1002.9hPa South 6.9mph /  11.1km/h 13.0mph /  20.9km/h 30% 0.00in /  0mm meteobridge W/m2
16:52 78.3 °F /  25.7 °C 43.3 °F /  6.3 °C 29.62in /  1002.9hPa South 2.9mph /  4.7km/h 11.0mph /  17.7km/h 29% 0.00in /  0mm meteobridge W/m2
16:58 79.0 °F /  26.1 °C 45.7 °F /  7.6 °C 29.62in /  1002.9hPa SSW 15.0mph /  24.1km/h 17.0mph /  27.4km/h 31% 0.00in /  0mm meteobridge W/m2
17:04 78.3 °F /  25.7 °C 44.2 °F /  6.8 °C 29.62in /  1002.9hPa South 6.9mph /  11.1km/h 11.0mph /  17.7km/h 30% 0.00in /  0mm meteobridge W/m2
17:11 78.1 °F /  25.6 °C 45.0 °F /  7.2 °C 29.62in /  1002.9hPa South 6.9mph /  11.1km/h 9.0mph /  14.5km/h 31% 0.00in /  0mm meteobridge W/m2
17:17 77.5 °F /  25.3 °C 44.6 °F /  7 °C 29.62in /  1002.9hPa SSW 10.1mph /  16.3km/h 12.0mph /  19.3km/h 31% 0.00in /  0mm meteobridge W/m2
17:23 77.4 °F /  25.2 °C 46.0 °F /  7.8 °C 29.62in /  1002.9hPa SSE 4.0mph /  6.4km/h 10.0mph /  16.1km/h 33% 0.00in /  0mm meteobridge W/m2
17:29 77.5 °F /  25.3 °C 44.6 °F /  7 °C 29.62in /  1002.9hPa SSE 10.1mph /  16.3km/h 13.0mph /  20.9km/h 31% 0.00in /  0mm meteobridge W/m2
17:35 77.2 °F /  25.1 °C 44.2 °F /  6.8 °C 29.62in /  1002.9hPa SSW 4.0mph /  6.4km/h 10.0mph /  16.1km/h 31% 0.00in /  0mm meteobridge W/m2
17:41 76.8 °F /  24.9 °C 43.9 °F /  6.6 °C 29.61in /  1002.6hPa South 10.1mph /  16.3km/h 12.0mph /  19.3km/h 31% 0.00in /  0mm meteobridge W/m2
17:47 76.6 °F /  24.8 °C 43.7 °F /  6.5 °C 29.61in /  1002.6hPa South 4.9mph /  7.9km/h 11.0mph /  17.7km/h 31% 0.00in /  0mm meteobridge W/m2
17:53 76.6 °F /  24.8 °C 43.7 °F /  6.5 °C 29.61in /  1002.6hPa South 6.0mph /  9.7km/h 10.0mph /  16.1km/h 31% 0.00in /  0mm meteobridge W/m2
18:00 76.3 °F /  24.6 °C 45.9 °F /  7.7 °C 29.61in /  1002.6hPa South 2.9mph /  4.7km/h 9.0mph /  14.5km/h 34% 0.00in /  0mm meteobridge W/m2
18:06 75.6 °F /  24.2 °C 45.1 °F /  7.3 °C 29.61in /  1002.6hPa SSE 6.0mph /  9.7km/h 11.0mph /  17.7km/h 34% 0.00in /  0mm meteobridge W/m2
18:12 75.0 °F /  23.9 °C 45.5 °F /  7.5 °C 29.61in /  1002.6hPa South 4.0mph /  6.4km/h 12.0mph /  19.3km/h 35% 0.00in /  0mm meteobridge W/m2
18:18 75.0 °F /  23.9 °C 44.8 °F /  7.1 °C 29.61in /  1002.6hPa SSE 6.9mph /  11.1km/h 12.0mph /  19.3km/h 34% 0.00in /  0mm meteobridge W/m2
18:24 74.7 °F /  23.7 °C 44.4 °F /  6.9 °C 29.61in /  1002.6hPa South 6.0mph /  9.7km/h 16.0mph /  25.7km/h 34% 0.00in /  0mm meteobridge W/m2
18:30 74.1 °F /  23.4 °C 44.8 °F /  7.1 °C 29.61in /  1002.6hPa South 6.0mph /  9.7km/h 9.0mph /  14.5km/h 35% 0.00in /  0mm meteobridge W/m2
18:36 73.8 °F /  23.2 °C 44.4 °F /  6.9 °C 29.61in /  1002.6hPa SSE 2.9mph /  4.7km/h 11.0mph /  17.7km/h 35% 0.00in /  0mm meteobridge W/m2
18:43 73.6 °F /  23.1 °C 45.0 °F /  7.2 °C 29.61in /  1002.6hPa South 6.0mph /  9.7km/h 10.0mph /  16.1km/h 36% 0.00in /  0mm meteobridge W/m2
18:49 73.0 °F /  22.8 °C 45.1 °F /  7.3 °C 29.61in /  1002.6hPa South 4.0mph /  6.4km/h 10.0mph /  16.1km/h 37% 0.00in /  0mm meteobridge W/m2
18:55 72.3 °F /  22.4 °C 44.6 °F /  7 °C 29.61in /  1002.6hPa South 6.9mph /  11.1km/h 11.0mph /  17.7km/h 37% 0.00in /  0mm meteobridge W/m2
19:01 71.8 °F /  22.1 °C 44.8 °F /  7.1 °C 29.61in /  1002.6hPa South 4.0mph /  6.4km/h 6.0mph /  9.7km/h 38% 0.00in /  0mm meteobridge W/m2
19:07 71.8 °F /  22.1 °C 44.8 °F /  7.1 °C 29.61in /  1002.6hPa South 4.0mph /  6.4km/h 4.0mph /  6.4km/h 38% 0.00in /  0mm meteobridge W/m2
19:14 71.8 °F /  22.1 °C 44.8 °F /  7.1 °C 29.61in /  1002.6hPa South 4.0mph /  6.4km/h -999.0mph /  -1607.7km/h 38% 0.00in /  0mm meteobridge W/m2
Regenstein, Windhoek, Namibia
Compliments of Weather Underground - 2.5 mb